EW7772 Weather Reports


time (UTC)temp
F
wind
direction
speed
knots
gust
knots
rain 1hr
in
rain 24hr
in
rain mn
in
humidity
%
barometer
mb
20240614121550 65 32 0.0 2.6 0.00 0.02 0.02 67 1012.7
20240614120045 63 38 0.0 1.7 0.00 0.02 0.02 69 1012.9
20240614114546 63 37 0.0 1.7 0.00 0.02 0.02 72 1013.0
20240614113042 63 38 0.0 3.5 0.00 0.02 0.02 72 1013.1
20240614111546 62 126 0.0 0.9 0.00 0.02 0.02 72 1013.2
20240614110043 62 130 0.0 1.7 0.00 0.02 0.02 72 1013.4
20240614104538 61 27 0.0 2.6 0.00 0.02 0.02 70 1013.5
20240614103044 62 221 0.0 1.7 0.00 0.02 0.02 71 1013.4
20240614101553 62 258 0.0 2.6 0.00 0.02 0.02 71 1013.4
20240614100034 61 323 0.0 0.0 0.00 0.02 0.02 75 1013.5
20240614094547 61 323 0.0 0.0 0.00 0.02 0.02 78 1013.4
20240614093028 59 324 0.0 0.0 0.01 0.02 0.02 83 1013.6
20240614091535 58 324 0.0 0.0 0.01 0.02 0.02 85 1013.5
20240614090043 57 324 0.0 0.0 0.01 0.02 0.02 85 1013.5
20240614084520 57 324 0.0 0.0 0.01 0.02 0.02 87 1013.7
20240614083017 56 324 0.0 0.0 0.01 0.01 0.01 86 1013.7
20240614081516 57 323 0.0 0.0 0.01 0.01 0.01 85 1013.6
20240614080015 56 323 0.0 0.0 0.01 0.01 0.01 85 1013.9
20240614074521 56 323 0.0 0.0 0.01 0.01 0.01 84 1013.9
20240614073013 56 323 0.0 0.0 0.00 0.00 0.00 83 1014.0
20240614071512 56 323 0.0 0.0 0.00 0.00 0.00 83 1014.0
20240614070010 56 323 0.0 0.0 0.00 0.00 0.00 82 1014.2
20240614064513 56 324 0.0 0.0 0.00 0.00 0.00 84 1014.2
20240614063008 56 324 0.0 0.0 0.00 0.00 0.00 83 1014.4
20240614061505 56 324 0.0 0.0 0.00 0.00 0.00 82 1014.0
20240614060003 56 324 0.0 0.0 0.00 0.00 0.00 82 1013.6
20240614054603 56 324 0.0 0.0 0.00 0.00 0.00 80 1013.5
20240614053101 55 324 0.0 0.0 0.00 0.00 0.00 77 1012.9
20240614051559 55 324 0.0 0.0 0.00 0.00 0.00 76 1012.6
20240614050138 55 324 0.0 0.0 0.00 0.00 0.00 76 1012.5
20240614044556 55 323 0.0 0.0 0.00 0.00 0.00 78 1012.7
20240614043056 55 323 0.0 0.0 0.00 0.00 0.00 75 1012.8
20240614041553 55 323 0.0 0.0 0.00 0.00 0.00 75 1012.8
20240614040100 55 323 0.0 0.0 0.00 0.00 0.00 75 1012.7
20240614034549 56 323 0.0 0.0 0.00 0.00 0.00 73 1012.7
20240614033048 56 323 0.0 0.0 0.00 0.00 0.00 72 1012.8
20240614031547 56 323 0.0 0.0 0.00 0.00 0.00 73 1012.8
20240614030046 56 323 0.0 0.0 0.00 0.00 0.00 72 1012.7
20240614024606 56 323 0.0 0.0 0.00 0.00 0.00 72 1012.8
20240614023044 56 323 0.0 0.0 0.00 0.00 0.00 72 1012.8
20240614021543 56 323 0.0 0.0 0.00 0.00 0.00 72 1012.9
20240614020045 56 323 0.0 0.0 0.00 0.00 0.00 72 1013.1
20240614014538 56 323 0.0 0.0 0.00 0.00 0.00 72 1013.3
20240614013036 56 323 0.0 0.0 0.00 0.00 0.00 71 1013.3
20240614011546 56 323 0.0 0.0 0.00 0.00 0.00 72 1013.4
20240614010037 55 324 0.0 0.0 0.00 0.00 0.00 72 1013.5
20240614004532 56 324 0.0 0.0 0.00 0.00 0.00 72 1013.7
20240614003034 55 267 0.0 0.0 0.00 0.00 0.00 72 1013.9
20240614001536 55 267 0.0 0.0 0.00 0.00 0.00 72 1014.0
20240614000027 55 267 0.0 0.0 0.00 0.00 0.00 72 1014.1
20240613234525 55 267 0.0 0.0 0.00 0.00 0.00 73 1014.3
20240613233023 54 267 0.0 0.0 0.00 0.00 0.00 74 1014.3
20240613231537 53 267 0.0 0.0 0.00 0.00 0.00 76 1014.4
20240613230031 54 267 0.0 0.0 0.00 0.00 0.00 76 1014.6
20240613224519 54 267 0.0 0.0 0.00 0.00 0.00 76 1014.7
20240613223017 54 267 0.0 0.0 0.00 0.00 0.00 75 1014.7
20240613221516 55 267 0.0 0.0 0.00 0.00 0.00 75 1014.8
20240613220029 55 267 0.0 0.0 0.00 0.00 0.00 74 1014.8
20240613214511 55 267 0.0 0.0 0.00 0.00 0.00 73 1015.1
20240613213010 56 267 0.0 0.0 0.00 0.00 0.00 72 1015.2
20240613211512 57 267 0.0 0.0 0.00 0.00 0.00 71 1015.2
20240613210008 57 267 0.0 0.0 0.00 0.00 0.00 69 1015.4
20240613204512 57 267 0.0 0.0 0.00 0.00 0.00 69 1015.6
20240613203006 58 267 0.0 0.0 0.00 0.00 0.00 69 1015.6
20240613201505 58 267 0.0 0.0 0.00 0.00 0.00 68 1015.7
20240613200005 59 267 0.0 0.0 0.00 0.00 0.00 66 1015.7
20240613194504 60 267 0.0 0.0 0.00 0.00 0.00 64 1015.6
20240613193003 60 267 0.0 0.0 0.00 0.00 0.00 61 1015.6
20240613191502 61 267 0.0 0.0 0.00 0.00 0.00 60 1015.6
20240613190002 62 267 0.0 0.0 0.00 0.00 0.00 58 1015.7
20240613184501 64 267 0.0 0.0 0.00 0.00 0.00 55 1015.7
20240613183136 64 267 0.0 0.0 0.00 0.00 0.00 51 1015.8
20240613181603 65 267 0.0 0.0 0.00 0.00 0.00 49 1015.8
20240613180109 67 267 0.0 0.0 0.00 0.00 0.00 45 1015.9
20240613174629 67 267 0.0 0.0 0.00 0.00 0.00 43 1015.9
20240613173120 68 267 0.0 0.0 0.00 0.00 0.00 43 1015.8
20240613171558 69 296 0.0 0.0 0.00 0.00 0.00 40 1015.8
20240613170057 70 296 0.0 0.0 0.00 0.00 0.00 38 1015.8
20240613164555 69 299 0.0 0.0 0.00 0.00 0.00 38 1016.0
20240613163104 70 300 0.0 0.0 0.00 0.00 0.00 39 1016.1
20240613161615 70 35 0.0 0.0 0.00 0.00 0.00 39 1016.1
20240613160058 70 299 0.0 0.0 0.00 0.00 0.00 37 1016.0
20240613154554 70 258 0.0 0.0 0.00 0.00 0.00 38 1016.0
20240613153051 69 305 0.0 0.9 0.00 0.00 0.00 38 1016.1
20240613151603 69 303 0.0 0.0 0.00 0.00 0.00 40 1016.3
20240613150111 69 288 0.0 0.0 0.00 0.00 0.00 40 1016.3
20240613144557 69 289 0.0 0.0 0.00 0.00 0.00 40 1016.5
20240613143046 69 267 0.0 0.0 0.00 0.00 0.00 42 1016.6
20240613141544 70 263 0.0 0.0 0.00 0.00 0.00 41 1016.7
20240613140041 69 287 0.0 0.0 0.00 0.00 0.00 42 1016.9
20240613134540 69 267 0.0 0.0 0.00 0.00 0.00 41 1017.1
20240613133037 69 277 0.0 0.0 0.00 0.00 0.00 44 1017.2
20240613131535 68 287 0.0 0.0 0.00 0.00 0.00 39 1017.3
20240613130033 67 262 0.0 0.0 0.00 0.00 0.00 46 1017.4
20240613124532 67 287 0.0 0.0 0.00 0.00 0.00 42 1017.5
20240613123037 67 286 0.0 0.0 0.00 0.00 0.00 43 1017.4